createdAt,value
2023-03-03T00:01:39.896Z,50.70
2023-03-03T00:04:06.510Z,49.70
2023-03-03T00:06:33.067Z,47.70
2023-03-03T00:08:59.693Z,46.27
2023-03-03T00:11:26.371Z,44.60
2023-03-03T00:13:54.883Z,51.43
2023-03-03T00:16:40.659Z,46.93
2023-03-03T00:19:15.466Z,43.87
2023-03-03T00:21:45.770Z,46.20
2023-03-03T00:24:15.263Z,46.63
2023-03-03T00:26:44.644Z,44.17
2023-03-03T00:29:29.161Z,45.40
2023-03-03T00:32:03.623Z,44.80
2023-03-03T00:34:31.115Z,48.00
2023-03-03T00:36:58.715Z,44.73
2023-03-03T00:39:39.604Z,45.43
2023-03-03T00:42:14.800Z,45.93
2023-03-03T00:44:48.819Z,43.97
2023-03-03T00:47:25.353Z,46.57
2023-03-03T00:49:52.778Z,48.07
2023-03-03T00:52:20.609Z,45.57
2023-03-03T00:54:47.585Z,49.43
2023-03-03T00:57:14.189Z,49.63
2023-03-03T00:59:41.000Z,46.23
2023-03-03T01:02:07.681Z,50.40
2023-03-03T01:04:34.320Z,43.80
2023-03-03T01:07:00.888Z,46.67
2023-03-03T01:09:28.168Z,47.30
2023-03-03T01:11:55.409Z,50.30
2023-03-03T01:14:22.263Z,44.87
2023-03-03T01:16:50.099Z,47.73
2023-03-03T01:19:16.720Z,47.57
2023-03-03T01:21:43.271Z,49.90
2023-03-03T01:24:10.641Z,50.33
2023-03-03T01:26:37.216Z,45.40
2023-03-03T01:29:03.834Z,47.27
2023-03-03T01:31:30.418Z,45.33
2023-03-03T01:33:57.029Z,46.13
2023-03-03T01:36:25.480Z,49.43
2023-03-03T01:38:52.109Z,50.33
2023-03-03T01:41:18.677Z,45.13
2023-03-03T01:43:48.546Z,54.37
2023-03-03T01:46:24.664Z,47.77
2023-03-03T01:48:56.948Z,53.10
2023-03-03T01:51:57.943Z,45.57
2023-03-03T01:54:29.617Z,49.87
2023-03-03T01:57:00.390Z,50.47
2023-03-03T01:59:37.149Z,46.13
2023-03-03T02:02:05.006Z,48.20
2023-03-03T02:04:31.732Z,50.70
2023-03-03T02:07:04.250Z,44.97
2023-03-03T02:09:49.805Z,47.60
2023-03-03T02:12:20.078Z,47.87
2023-03-03T02:14:46.660Z,50.30
2023-03-03T02:17:13.362Z,52.33
2023-03-03T02:19:59.978Z,49.50
2023-03-03T02:22:47.000Z,47.47
2023-03-03T02:25:22.460Z,48.57
2023-03-03T02:27:49.451Z,48.37
2023-03-03T02:30:22.907Z,47.23
2023-03-03T02:32:49.508Z,52.03
2023-03-03T02:35:29.789Z,44.90
2023-03-03T02:38:03.563Z,45.70
2023-03-03T02:40:34.584Z,45.60
2023-03-03T02:43:02.892Z,47.53
2023-03-03T02:45:29.476Z,49.53
2023-03-03T02:47:56.104Z,48.97
2023-03-03T02:50:22.765Z,43.50
2023-03-03T02:52:49.341Z,49.40
2023-03-03T02:55:16.031Z,46.77
2023-03-03T02:57:42.591Z,47.83
2023-03-03T03:00:10.089Z,52.50
2023-03-03T03:02:36.712Z,58.03
2023-03-03T03:05:03.408Z,55.13
2023-03-03T03:07:30.008Z,56.03
2023-03-03T03:09:56.602Z,54.20
2023-03-03T03:12:23.155Z,53.10
2023-03-03T03:14:49.698Z,46.00
2023-03-03T03:17:16.270Z,53.63
2023-03-03T03:19:42.836Z,44.67
2023-03-03T03:22:09.398Z,50.17
2023-03-03T03:24:35.966Z,44.43
2023-03-03T03:27:02.583Z,49.97
2023-03-03T03:29:29.190Z,51.13
2023-03-03T03:31:56.107Z,48.77
2023-03-03T03:34:22.777Z,46.10
2023-03-03T03:36:49.331Z,44.73
2023-03-03T03:39:16.033Z,45.80
2023-03-03T03:41:42.584Z,52.27
2023-03-03T03:44:09.368Z,45.93
2023-03-03T03:46:35.911Z,50.53
2023-03-03T03:49:02.466Z,43.07
2023-03-03T03:51:29.126Z,46.53
2023-03-03T03:53:55.665Z,48.80
2023-03-03T03:56:22.242Z,45.47
2023-03-03T03:58:48.804Z,44.37
2023-03-03T04:01:15.421Z,47.50
2023-03-03T04:03:42.007Z,43.13
2023-03-03T04:06:08.573Z,48.13
2023-03-03T04:08:35.200Z,46.00
2023-03-03T04:11:01.772Z,45.63
2023-03-03T04:13:31.841Z,43.87
2023-03-03T04:15:58.513Z,45.57
2023-03-03T04:18:25.296Z,45.93
2023-03-03T04:20:52.735Z,53.10
2023-03-03T04:23:19.574Z,41.07
2023-03-03T04:25:48.064Z,46.00
2023-03-03T04:28:15.604Z,45.67
2023-03-03T04:30:42.603Z,41.57
2023-03-03T04:33:09.797Z,44.30
2023-03-03T04:35:36.404Z,46.30
2023-03-03T04:38:03.012Z,41.63
2023-03-03T04:40:29.598Z,46.60
2023-03-03T04:42:56.153Z,45.03
2023-03-03T04:45:22.757Z,44.40
2023-03-03T04:47:49.294Z,46.30
2023-03-03T04:50:16.398Z,45.60
2023-03-03T04:52:43.052Z,48.57
2023-03-03T04:55:10.593Z,49.83
2023-03-03T04:57:37.394Z,45.70
2023-03-03T05:00:04.873Z,48.67
2023-03-03T05:02:31.438Z,46.30
2023-03-03T05:04:58.083Z,45.63
2023-03-03T05:07:24.712Z,42.27
2023-03-03T05:09:51.453Z,44.80
2023-03-03T05:12:18.075Z,43.10
2023-03-03T05:14:44.649Z,44.67
2023-03-03T05:17:11.204Z,47.17
2023-03-03T05:19:39.065Z,45.93
2023-03-03T05:22:05.684Z,48.03
2023-03-03T05:24:32.289Z,48.97
2023-03-03T05:26:58.889Z,45.90
2023-03-03T05:29:26.212Z,46.67
2023-03-03T05:31:52.916Z,45.67
2023-03-03T05:34:19.544Z,46.63
2023-03-03T05:36:46.127Z,45.20
2023-03-03T05:39:12.736Z,48.35
2023-03-03T05:41:39.418Z,54.17
2023-03-03T05:44:06.368Z,44.03
2023-03-03T05:46:32.981Z,50.67
2023-03-03T05:48:59.587Z,44.10
2023-03-03T05:51:26.340Z,42.93
2023-03-03T05:53:55.367Z,44.33
2023-03-03T05:56:23.024Z,48.03
2023-03-03T05:58:58.222Z,50.57
2023-03-03T06:01:25.281Z,49.67
2023-03-03T06:03:52.276Z,49.40
2023-03-03T06:06:19.329Z,49.23
2023-03-03T06:08:46.401Z,46.43
2023-03-03T06:11:13.626Z,50.13
2023-03-03T06:13:41.309Z,53.67
2023-03-03T06:16:08.433Z,51.43
2023-03-03T06:18:35.056Z,53.50
2023-03-03T06:21:01.755Z,54.10
2023-03-03T06:23:28.464Z,54.10
2023-03-03T06:25:59.442Z,57.77
2023-03-03T06:28:26.165Z,57.27
2023-03-03T06:30:56.311Z,53.63
2023-03-03T06:33:23.108Z,58.37
2023-03-03T06:35:54.149Z,55.60
2023-03-03T06:38:21.367Z,53.83
2023-03-03T06:40:48.140Z,57.80
2023-03-03T06:43:14.725Z,46.53
2023-03-03T06:45:41.443Z,56.43
2023-03-03T06:48:08.022Z,44.60
2023-03-03T06:50:34.918Z,54.97
2023-03-03T06:53:12.959Z,47.47
2023-03-03T06:55:40.330Z,50.97
2023-03-03T06:58:15.978Z,47.13
2023-03-03T07:00:44.804Z,51.80
2023-03-03T07:03:21.587Z,49.43
2023-03-03T07:05:48.308Z,48.00
2023-03-03T07:08:18.325Z,46.37
2023-03-03T07:10:46.133Z,49.00
2023-03-03T07:13:27.307Z,45.97
2023-03-03T07:15:56.054Z,47.23
2023-03-03T07:18:46.024Z,42.27
2023-03-03T07:21:23.137Z,51.40
2023-03-03T07:23:52.045Z,40.37
2023-03-03T07:26:30.557Z,39.87
2023-03-03T07:29:22.069Z,42.45
2023-03-03T07:31:49.875Z,38.87
2023-03-03T07:34:26.913Z,41.30
2023-03-03T07:36:57.697Z,46.70
2023-03-03T07:39:40.576Z,36.37
2023-03-03T07:42:22.824Z,41.83
2023-03-03T07:44:55.231Z,35.43
2023-03-03T07:47:24.024Z,33.17
2023-03-03T07:49:52.410Z,36.77
2023-03-03T07:52:27.286Z,33.13
2023-03-03T07:54:57.080Z,32.73
2023-03-03T07:57:34.784Z,31.13
2023-03-03T08:00:19.098Z,25.77
2023-03-03T08:02:55.290Z,29.50
2023-03-03T08:05:39.914Z,31.20
2023-03-03T08:08:09.498Z,30.13
2023-03-03T08:10:53.085Z,30.77
2023-03-03T08:13:29.482Z,31.43
2023-03-03T08:16:23.038Z,33.70
2023-03-03T08:18:51.700Z,30.77
2023-03-03T08:21:20.644Z,32.33
2023-03-03T08:23:49.208Z,29.43
2023-03-03T08:26:16.922Z,28.97
2023-03-03T08:28:43.777Z,32.50
2023-03-03T08:31:22.396Z,28.10
2023-03-03T08:33:54.816Z,26.30
2023-03-03T08:36:21.518Z,27.93
2023-03-03T08:38:48.174Z,28.77
2023-03-03T08:41:14.997Z,27.37
2023-03-03T08:43:41.649Z,26.70
2023-03-03T08:46:10.333Z,25.53
2023-03-03T08:48:37.454Z,32.13
2023-03-03T08:51:04.441Z,26.43
2023-03-03T08:53:33.563Z,25.57
2023-03-03T08:56:00.157Z,24.83
2023-03-03T08:58:34.971Z,24.53
2023-03-03T09:01:04.868Z,31.57
2023-03-03T09:03:31.740Z,25.10
2023-03-03T09:05:58.581Z,26.67
2023-03-03T09:08:25.171Z,29.37
2023-03-03T09:10:51.768Z,24.00
2023-03-03T09:13:19.356Z,28.37
2023-03-03T09:15:46.711Z,24.27
2023-03-03T09:18:31.423Z,26.47
2023-03-03T09:20:57.997Z,26.77
2023-03-03T09:23:36.180Z,26.57
2023-03-03T09:26:44.360Z,28.10
2023-03-03T09:29:28.998Z,34.10
2023-03-03T09:32:02.004Z,31.27
2023-03-03T09:34:40.986Z,29.17
2023-03-03T09:37:32.378Z,28.67
2023-03-03T09:39:59.344Z,26.57
2023-03-03T09:42:54.661Z,27.20
2023-03-03T09:45:40.673Z,26.27
2023-03-03T09:48:35.167Z,30.63
2023-03-03T09:51:19.478Z,29.60
2023-03-03T09:53:54.965Z,30.50
2023-03-03T09:56:24.560Z,31.13
2023-03-03T09:59:21.813Z,27.30
2023-03-03T10:02:01.369Z,29.53
2023-03-03T10:05:09.869Z,27.40
2023-03-03T10:08:18.207Z,29.50
2023-03-03T10:11:20.300Z,30.67
2023-03-03T10:14:18.868Z,30.20
2023-03-03T10:17:03.835Z,29.30
2023-03-03T10:20:00.962Z,32.87
2023-03-03T10:22:50.557Z,32.40
2023-03-03T10:25:23.056Z,33.60
2023-03-03T10:27:58.838Z,27.27
2023-03-03T10:30:46.187Z,31.03
2023-03-03T10:33:32.972Z,32.40
2023-03-03T10:36:08.585Z,34.15
2023-03-03T10:38:42.061Z,30.53
2023-03-03T10:41:15.150Z,32.03
2023-03-03T10:43:47.632Z,34.03
2023-03-03T10:46:26.135Z,33.07
2023-03-03T10:49:13.166Z,36.37
2023-03-03T10:51:55.314Z,33.83
2023-03-03T10:54:49.030Z,31.63
2023-03-03T10:57:38.154Z,27.33
2023-03-03T11:00:16.915Z,29.60
2023-03-03T11:03:08.756Z,29.93
2023-03-03T11:05:43.475Z,30.57
2023-03-03T11:08:49.482Z,26.97
2023-03-03T11:11:28.022Z,28.90
2023-03-03T11:14:09.327Z,31.10
2023-03-03T11:17:04.626Z,27.77
2023-03-03T11:19:52.659Z,30.00
2023-03-03T11:22:28.188Z,26.83
2023-03-03T11:25:24.799Z,27.00
2023-03-03T11:28:14.390Z,28.50
2023-03-03T11:30:58.751Z,29.50
2023-03-03T11:34:00.565Z,29.37
2023-03-03T11:36:39.148Z,29.37
2023-03-03T11:39:11.708Z,27.37
2023-03-03T11:41:43.421Z,28.03
2023-03-03T11:44:47.819Z,28.10
2023-03-03T11:47:32.257Z,26.00
2023-03-03T11:50:15.203Z,27.38
2023-03-03T11:53:09.033Z,24.77
2023-03-03T11:55:41.764Z,27.90
2023-03-03T11:58:16.794Z,24.77
2023-03-03T12:01:11.409Z,30.23
2023-03-03T12:03:56.517Z,27.93
2023-03-03T12:06:58.650Z,25.33
2023-03-03T12:10:06.673Z,28.70
2023-03-03T12:12:36.099Z,26.27
2023-03-03T12:15:15.653Z,26.47
2023-03-03T12:18:16.783Z,29.80
2023-03-03T12:21:04.987Z,29.67
2023-03-03T12:23:37.257Z,27.37
2023-03-03T12:26:19.304Z,28.30
2023-03-03T12:29:12.331Z,27.33
2023-03-03T12:31:49.082Z,30.10
2023-03-03T12:34:37.496Z,25.77
2023-03-03T12:37:34.506Z,28.60
2023-03-03T12:40:21.384Z,25.67
2023-03-03T12:43:07.641Z,29.70
2023-03-03T12:45:56.039Z,29.13
2023-03-03T12:48:34.992Z,28.17
2023-03-03T12:51:38.849Z,28.97
2023-03-03T12:54:16.143Z,26.70
2023-03-03T12:56:58.069Z,31.10
2023-03-03T12:59:30.520Z,29.87
2023-03-03T13:02:45.315Z,27.40
2023-03-03T13:05:40.618Z,29.52
2023-03-03T13:08:23.766Z,34.03
2023-03-03T13:11:09.155Z,27.00
2023-03-03T13:14:14.311Z,28.53
2023-03-03T13:16:54.712Z,30.67
2023-03-03T13:19:27.092Z,29.37
2023-03-03T13:22:22.321Z,30.53
2023-03-03T13:25:09.969Z,29.13
2023-03-03T13:27:41.995Z,32.13
2023-03-03T13:30:24.532Z,35.57
2023-03-03T13:32:59.437Z,28.87
2023-03-03T13:35:45.903Z,30.77
2023-03-03T13:38:20.409Z,31.30
2023-03-03T13:41:28.669Z,27.07
2023-03-03T13:44:03.972Z,29.67
2023-03-03T13:47:02.667Z,34.57
2023-03-03T13:49:48.219Z,32.07
2023-03-03T13:52:27.148Z,31.83
2023-03-03T13:54:55.910Z,28.63
2023-03-03T13:57:56.108Z,29.00
2023-03-03T14:00:30.079Z,32.33
2023-03-03T14:03:14.719Z,27.97
2023-03-03T14:05:56.189Z,31.83
2023-03-03T14:08:28.271Z,30.53
2023-03-03T14:11:30.845Z,31.37
2023-03-03T14:14:12.251Z,31.93
2023-03-03T14:16:52.034Z,30.07
2023-03-03T14:19:43.865Z,32.80
2023-03-03T14:22:32.245Z,30.27
2023-03-03T14:25:11.462Z,30.50
2023-03-03T14:27:53.163Z,34.27
2023-03-03T14:30:22.653Z,31.63
2023-03-03T14:33:07.599Z,34.60
2023-03-03T14:35:46.355Z,33.27
2023-03-03T14:38:15.733Z,33.90
2023-03-03T14:40:45.500Z,29.20
2023-03-03T14:43:27.050Z,32.20
2023-03-03T14:45:55.055Z,30.83
2023-03-03T14:48:24.790Z,29.33
2023-03-03T14:50:53.041Z,26.80
2023-03-03T14:53:19.715Z,32.05
2023-03-03T14:55:49.430Z,32.23
2023-03-03T14:58:29.848Z,32.87
2023-03-03T15:01:29.802Z,32.67
2023-03-03T15:04:05.422Z,35.20
2023-03-03T15:06:43.964Z,33.30
2023-03-03T15:09:38.210Z,30.63
2023-03-03T15:12:38.662Z,33.77
2023-03-03T15:15:05.476Z,30.83
2023-03-03T15:17:37.842Z,30.40
2023-03-03T15:20:40.627Z,32.73
2023-03-03T15:23:29.307Z,31.90
2023-03-03T15:26:04.594Z,32.50
2023-03-03T15:28:54.391Z,34.37
2023-03-03T15:31:33.058Z,30.73
2023-03-03T15:34:26.339Z,35.20
2023-03-03T15:37:06.181Z,36.10
2023-03-03T15:39:59.109Z,34.07
2023-03-03T15:42:41.369Z,34.80
2023-03-03T15:45:31.708Z,35.97
2023-03-03T15:48:19.926Z,35.80
2023-03-03T15:51:24.452Z,32.07
2023-03-03T15:54:16.543Z,33.07
2023-03-03T15:56:53.927Z,34.53
2023-03-03T15:59:46.303Z,32.80
2023-03-03T16:02:17.527Z,31.03
2023-03-03T16:05:20.170Z,35.47
2023-03-03T16:07:55.522Z,35.80
2023-03-03T16:10:36.721Z,34.53
2023-03-03T16:13:16.968Z,32.07
2023-03-03T16:16:01.861Z,31.23
2023-03-03T16:18:35.678Z,34.03
2023-03-03T16:21:23.915Z,33.60
2023-03-03T16:24:00.792Z,32.60
2023-03-03T16:26:36.871Z,32.33
2023-03-03T16:29:21.011Z,32.90
2023-03-03T16:31:50.288Z,34.27
2023-03-03T16:34:30.142Z,32.73
2023-03-03T16:37:07.661Z,33.27
2023-03-03T16:39:42.933Z,33.77
2023-03-03T16:42:24.049Z,31.67
2023-03-03T16:45:15.438Z,34.27
2023-03-03T16:47:57.499Z,38.17
2023-03-03T16:50:38.921Z,33.27
2023-03-03T16:53:31.984Z,32.93
2023-03-03T16:56:14.528Z,33.20
2023-03-03T16:58:59.755Z,35.90
2023-03-03T17:01:47.940Z,33.23
2023-03-03T17:04:57.596Z,32.67
2023-03-03T17:07:44.632Z,33.27
2023-03-03T17:10:29.460Z,41.20
2023-03-03T17:13:42.180Z,32.97
2023-03-03T17:16:18.108Z,33.53
2023-03-03T17:18:54.786Z,35.83
2023-03-03T17:21:46.215Z,38.63
2023-03-03T17:24:22.276Z,36.57
2023-03-03T17:27:08.010Z,35.30
2023-03-03T17:29:44.568Z,34.97
2023-03-03T17:32:33.635Z,36.90
2023-03-03T17:35:18.743Z,37.53
2023-03-03T17:37:54.176Z,34.53
2023-03-03T17:40:23.901Z,38.20
2023-03-03T17:43:18.949Z,33.67
2023-03-03T17:45:49.051Z,31.40
2023-03-03T17:48:43.605Z,34.83
2023-03-03T17:51:30.559Z,33.37
2023-03-03T17:54:21.499Z,35.73
2023-03-03T17:57:23.699Z,36.23
2023-03-03T18:00:19.267Z,34.70
2023-03-03T18:03:03.506Z,37.93
2023-03-03T18:06:02.687Z,39.70
2023-03-03T18:08:29.244Z,37.90
2023-03-03T18:11:10.918Z,42.47
2023-03-03T18:14:13.684Z,38.07
2023-03-03T18:16:52.387Z,40.60
2023-03-03T18:19:46.444Z,47.07
2023-03-03T18:22:21.111Z,39.27
2023-03-03T18:24:50.394Z,42.47
2023-03-03T18:27:35.858Z,41.40
2023-03-03T18:30:08.413Z,41.73
2023-03-03T18:32:57.118Z,38.70
2023-03-03T18:35:38.335Z,40.37
2023-03-03T18:38:25.458Z,37.67
2023-03-03T18:40:56.519Z,36.20
2023-03-03T18:43:45.141Z,38.23
2023-03-03T18:46:22.450Z,40.40
2023-03-03T18:48:54.593Z,39.93
2023-03-03T18:51:39.562Z,44.57
2023-03-03T18:54:30.561Z,44.33
2023-03-03T18:56:57.686Z,42.23
2023-03-03T18:59:36.363Z,42.87
2023-03-03T19:02:18.023Z,42.10
2023-03-03T19:04:51.231Z,42.47
2023-03-03T19:07:26.971Z,43.10
2023-03-03T19:10:02.696Z,44.93
2023-03-03T19:12:58.002Z,41.73
2023-03-03T19:15:35.486Z,42.57
2023-03-03T19:18:20.948Z,46.93
2023-03-03T19:20:55.123Z,45.40
2023-03-03T19:24:00.744Z,46.97
2023-03-03T19:26:30.427Z,44.87
2023-03-03T19:29:15.893Z,45.83
2023-03-03T19:32:28.227Z,45.23
2023-03-03T19:35:04.213Z,45.03
2023-03-03T19:37:53.381Z,48.93
2023-03-03T19:40:43.476Z,58.63
2023-03-03T19:43:29.031Z,75.97
2023-03-03T19:46:12.541Z,82.93
2023-03-03T19:49:05.231Z,80.70
2023-03-03T19:52:04.947Z,63.57
2023-03-03T19:54:49.694Z,55.80
2023-03-03T19:57:34.206Z,50.17
2023-03-03T20:00:14.025Z,49.70
2023-03-03T20:03:21.722Z,48.10
2023-03-03T20:06:16.861Z,44.83
2023-03-03T20:08:59.433Z,51.97
2023-03-03T20:11:46.160Z,52.30
2023-03-03T20:14:27.908Z,46.27
2023-03-03T20:16:58.268Z,46.93
2023-03-03T20:19:55.811Z,46.97
2023-03-03T20:22:34.317Z,48.40
2023-03-03T20:25:25.592Z,46.17
2023-03-03T20:27:54.956Z,44.43
2023-03-03T20:30:30.970Z,46.67
2023-03-03T20:33:37.691Z,42.70
2023-03-03T20:36:16.639Z,47.17
2023-03-03T20:39:04.571Z,44.87
2023-03-03T20:41:46.277Z,45.37
2023-03-03T20:44:38.894Z,46.87
2023-03-03T20:47:30.159Z,48.47
2023-03-03T20:50:22.030Z,45.03
2023-03-03T20:52:51.347Z,52.03
2023-03-03T20:55:47.392Z,42.67
2023-03-03T20:58:59.268Z,42.73
2023-03-03T21:01:58.300Z,44.93
2023-03-03T21:04:30.886Z,46.40
2023-03-03T21:06:58.324Z,42.67
2023-03-03T21:09:33.576Z,37.27
2023-03-03T21:12:02.766Z,41.47
2023-03-03T21:14:33.239Z,44.83
2023-03-03T21:17:02.607Z,43.70
2023-03-03T21:19:30.604Z,44.33
2023-03-03T21:22:00.838Z,43.60
2023-03-03T21:25:31.004Z,44.07
2023-03-03T21:28:56.185Z,40.03
2023-03-03T21:32:06.588Z,41.27
2023-03-03T21:35:21.636Z,49.50
2023-03-03T21:38:42.090Z,43.50
2023-03-03T21:41:12.654Z,44.70
2023-03-03T21:43:41.423Z,43.43
2023-03-03T21:46:08.941Z,42.80
2023-03-03T21:48:36.098Z,45.00
2023-03-03T21:51:03.130Z,43.37
2023-03-03T21:53:30.497Z,43.33
2023-03-03T21:55:57.534Z,39.83
2023-03-03T21:58:24.557Z,39.13
2023-03-03T22:00:51.560Z,41.70
2023-03-03T22:03:20.707Z,45.92
2023-03-03T22:05:50.624Z,37.00
2023-03-03T22:08:23.235Z,38.57
2023-03-03T22:10:55.953Z,44.90
2023-03-03T22:13:24.169Z,43.70
2023-03-03T22:15:51.543Z,39.53
2023-03-03T22:18:19.481Z,42.53
2023-03-03T22:20:47.268Z,45.30
2023-03-03T22:23:15.486Z,40.80
2023-03-03T22:25:42.469Z,42.50
2023-03-03T22:28:09.404Z,48.70
2023-03-03T22:30:36.733Z,48.73
2023-03-03T22:33:03.637Z,40.93
2023-03-03T22:35:30.535Z,42.83
2023-03-03T22:37:57.258Z,47.07
2023-03-03T22:40:24.176Z,47.60
2023-03-03T22:42:50.865Z,45.27
2023-03-03T22:45:17.462Z,45.63
2023-03-03T22:47:44.036Z,47.43
2023-03-03T22:50:11.491Z,46.73
2023-03-03T22:52:38.230Z,41.30
2023-03-03T22:55:05.329Z,50.47
2023-03-03T22:57:31.918Z,42.37
2023-03-03T22:59:59.865Z,44.63
2023-03-03T23:02:26.432Z,46.83
2023-03-03T23:04:58.028Z,45.93
2023-03-03T23:07:26.298Z,46.80
2023-03-03T23:09:53.094Z,44.80
2023-03-03T23:12:19.861Z,41.27
2023-03-03T23:14:46.429Z,47.00
2023-03-03T23:17:12.982Z,46.63
2023-03-03T23:19:39.564Z,45.43
2023-03-03T23:22:06.113Z,43.50
2023-03-03T23:24:33.108Z,43.90
2023-03-03T23:27:00.672Z,48.53
2023-03-03T23:29:27.374Z,46.47
2023-03-03T23:31:54.183Z,47.40
2023-03-03T23:34:20.948Z,44.87
2023-03-03T23:36:47.835Z,44.13
2023-03-03T23:39:15.211Z,44.20
2023-03-03T23:41:41.998Z,46.10
2023-03-03T23:44:08.698Z,46.83
2023-03-03T23:46:35.342Z,47.87
2023-03-03T23:49:02.076Z,46.83
2023-03-03T23:51:28.729Z,45.00
2023-03-03T23:53:56.023Z,46.07
2023-03-03T23:56:22.702Z,47.37
2023-03-03T23:58:49.385Z,46.80
